Terminal Aerodrome Forecast
Issued by NWS Knoxville/Tri Cities, TN

Current Version | Previous Version | Text Only | Print | Product List | Glossary On
Versions: 1 2 3 4 5 6 7 8 9 10 11 12 13 14 15 16 17 18 19 20 21 22 23 24 25 26 27 28 29 30 31 32 33 34 35 36 37 38 39 40 41 42 43 44 45 46 47
000
FTUS44 KMRX 031121
TAFCHA
TAF
KCHA 031121Z 0312/0412 03004KT P6SM BKN015
     FM031600 02003KT P6SM SCT020 BKN035
     FM031800 24006KT P6SM VCTS BKN040CB BKN200
     FM040000 00000KT P6SM SCT040 SCT200
     FM040900 00000KT 4SM BR SCT030=

USA.gov is the U.S. government's official web portal to all federal, state and local government web resources and services.